sensor_id;sensor_type;location;lat;lon;timestamp;temperature;humidity
13928;DHT22;7036;50.834;4.718;2023-09-12T00:01:50;27.40;65.20
13928;DHT22;7036;50.834;4.718;2023-09-12T00:04:17;27.40;65.30
13928;DHT22;7036;50.834;4.718;2023-09-12T00:06:44;27.40;65.30
13928;DHT22;7036;50.834;4.718;2023-09-12T00:09:11;27.40;65.30
13928;DHT22;7036;50.834;4.718;2023-09-12T00:11:38;27.40;65.30
13928;DHT22;7036;50.834;4.718;2023-09-12T00:14:04;27.40;65.30
13928;DHT22;7036;50.834;4.718;2023-09-12T00:16:31;27.40;65.40
13928;DHT22;7036;50.834;4.718;2023-09-12T00:18:58;27.40;65.40
13928;DHT22;7036;50.834;4.718;2023-09-12T00:21:25;27.40;65.30
13928;DHT22;7036;50.834;4.718;2023-09-12T00:23:52;27.40;65.40
13928;DHT22;7036;50.834;4.718;2023-09-12T00:26:19;27.40;65.40
13928;DHT22;7036;50.834;4.718;2023-09-12T00:28:46;27.40;65.40
13928;DHT22;7036;50.834;4.718;2023-09-12T00:31:13;27.40;65.30
13928;DHT22;7036;50.834;4.718;2023-09-12T00:33:40;27.40;65.30
13928;DHT22;7036;50.834;4.718;2023-09-12T00:36:07;27.40;65.20
13928;DHT22;7036;50.834;4.718;2023-09-12T00:38:34;27.30;65.30
13928;DHT22;7036;50.834;4.718;2023-09-12T00:41:01;27.30;65.90
13928;DHT22;7036;50.834;4.718;2023-09-12T00:43:28;27.30;65.30
13928;DHT22;7036;50.834;4.718;2023-09-12T00:45:54;27.30;65.30
13928;DHT22;7036;50.834;4.718;2023-09-12T00:48:21;27.30;65.30
13928;DHT22;7036;50.834;4.718;2023-09-12T00:50:48;27.30;65.20
13928;DHT22;7036;50.834;4.718;2023-09-12T00:53:15;27.30;65.20
13928;DHT22;7036;50.834;4.718;2023-09-12T00:55:44;27.30;65.20
13928;DHT22;7036;50.834;4.718;2023-09-12T00:58:09;27.30;65.30
13928;DHT22;7036;50.834;4.718;2023-09-12T01:00:36;27.30;65.20
13928;DHT22;7036;50.834;4.718;2023-09-12T01:03:03;27.30;65.10
13928;DHT22;7036;50.834;4.718;2023-09-12T01:05:30;27.30;65.20
13928;DHT22;7036;50.834;4.718;2023-09-12T01:07:57;27.30;65.10
13928;DHT22;7036;50.834;4.718;2023-09-12T01:10:23;27.30;65.20
13928;DHT22;7036;50.834;4.718;2023-09-12T01:12:50;27.30;65.30
13928;DHT22;7036;50.834;4.718;2023-09-12T01:15:18;27.30;65.30
13928;DHT22;7036;50.834;4.718;2023-09-12T01:17:45;27.30;65.30
13928;DHT22;7036;50.834;4.718;2023-09-12T01:20:14;27.30;65.20
13928;DHT22;7036;50.834;4.718;2023-09-12T01:26:00;27.30;65.20
13928;DHT22;7036;50.834;4.718;2023-09-12T01:28:21;27.30;65.20
13928;DHT22;7036;50.834;4.718;2023-09-12T01:30:48;27.30;65.10
13928;DHT22;7036;50.834;4.718;2023-09-12T01:33:15;27.30;65.10
13928;DHT22;7036;50.834;4.718;2023-09-12T01:35:42;27.30;65.20
13928;DHT22;7036;50.834;4.718;2023-09-12T01:38:09;27.30;65.20
13928;DHT22;7036;50.834;4.718;2023-09-12T01:40:43;27.20;65.10
13928;DHT22;7036;50.834;4.718;2023-09-12T01:43:08;27.20;65.20
13928;DHT22;7036;50.834;4.718;2023-09-12T01:45:35;27.20;65.20
13928;DHT22;7036;50.834;4.718;2023-09-12T01:48:02;27.20;65.20
13928;DHT22;7036;50.834;4.718;2023-09-12T01:50:29;27.20;65.30
13928;DHT22;7036;50.834;4.718;2023-09-12T01:52:56;27.20;65.30
13928;DHT22;7036;50.834;4.718;2023-09-12T01:55:23;27.20;65.30
13928;DHT22;7036;50.834;4.718;2023-09-12T01:57:50;27.20;65.30
13928;DHT22;7036;50.834;4.718;2023-09-12T02:00:18;27.20;65.20
13928;DHT22;7036;50.834;4.718;2023-09-12T02:02:45;27.20;65.30
13928;DHT22;7036;50.834;4.718;2023-09-12T02:05:16;27.20;65.20
13928;DHT22;7036;50.834;4.718;2023-09-12T02:07:41;27.20;65.20
13928;DHT22;7036;50.834;4.718;2023-09-12T02:10:07;27.20;65.20
13928;DHT22;7036;50.834;4.718;2023-09-12T02:12:35;27.20;65.40
13928;DHT22;7036;50.834;4.718;2023-09-12T02:15:03;27.20;65.30
13928;DHT22;7036;50.834;4.718;2023-09-12T02:17:29;27.20;65.20
13928;DHT22;7036;50.834;4.718;2023-09-12T02:19:56;27.20;65.20
13928;DHT22;7036;50.834;4.718;2023-09-12T02:22:23;27.20;65.20
13928;DHT22;7036;50.834;4.718;2023-09-12T02:24:50;27.20;66.00
13928;DHT22;7036;50.834;4.718;2023-09-12T02:27:17;27.10;65.20
13928;DHT22;7036;50.834;4.718;2023-09-12T02:29:44;27.20;65.20
13928;DHT22;7036;50.834;4.718;2023-09-12T02:32:11;27.10;65.20
13928;DHT22;7036;50.834;4.718;2023-09-12T02:34:38;27.10;65.30
13928;DHT22;7036;50.834;4.718;2023-09-12T02:37:05;27.10;65.30
13928;DHT22;7036;50.834;4.718;2023-09-12T02:39:32;27.10;65.30
13928;DHT22;7036;50.834;4.718;2023-09-12T02:41:58;27.10;65.20
13928;DHT22;7036;50.834;4.718;2023-09-12T02:44:25;27.10;65.30
13928;DHT22;7036;50.834;4.718;2023-09-12T02:46:52;27.10;65.30
13928;DHT22;7036;50.834;4.718;2023-09-12T02:49:19;27.00;65.30
13928;DHT22;7036;50.834;4.718;2023-09-12T02:51:46;27.00;65.30
13928;DHT22;7036;50.834;4.718;2023-09-12T02:54:13;27.00;65.30
13928;DHT22;7036;50.834;4.718;2023-09-12T02:56:40;27.10;65.30
13928;DHT22;7036;50.834;4.718;2023-09-12T02:59:07;27.10;65.30
13928;DHT22;7036;50.834;4.718;2023-09-12T03:01:34;27.00;65.30
13928;DHT22;7036;50.834;4.718;2023-09-12T03:04:01;27.00;65.30
13928;DHT22;7036;50.834;4.718;2023-09-12T03:06:28;27.00;65.30
13928;DHT22;7036;50.834;4.718;2023-09-12T03:08:55;27.00;65.40
13928;DHT22;7036;50.834;4.718;2023-09-12T03:11:22;27.00;65.30
13928;DHT22;7036;50.834;4.718;2023-09-12T03:13:49;27.00;65.40
13928;DHT22;7036;50.834;4.718;2023-09-12T03:16:16;27.00;65.30
13928;DHT22;7036;50.834;4.718;2023-09-12T03:18:43;27.00;65.20
13928;DHT22;7036;50.834;4.718;2023-09-12T03:21:10;27.00;65.30
13928;DHT22;7036;50.834;4.718;2023-09-12T03:23:36;27.00;65.30
13928;DHT22;7036;50.834;4.718;2023-09-12T03:26:04;27.00;65.30
13928;DHT22;7036;50.834;4.718;2023-09-12T03:28:31;27.00;65.40
13928;DHT22;7036;50.834;4.718;2023-09-12T03:31:05;27.00;66.10
13928;DHT22;7036;50.834;4.718;2023-09-12T03:33:30;27.00;65.40
13928;DHT22;7036;50.834;4.718;2023-09-12T03:35:57;27.00;65.50
13928;DHT22;7036;50.834;4.718;2023-09-12T03:38:24;27.00;65.40
13928;DHT22;7036;50.834;4.718;2023-09-12T03:40:51;27.00;65.30
13928;DHT22;7036;50.834;4.718;2023-09-12T03:43:18;27.00;65.40
13928;DHT22;7036;50.834;4.718;2023-09-12T03:45:45;26.90;65.30
13928;DHT22;7036;50.834;4.718;2023-09-12T03:48:12;26.90;65.40
13928;DHT22;7036;50.834;4.718;2023-09-12T03:50:39;27.00;65.40
13928;DHT22;7036;50.834;4.718;2023-09-12T03:53:06;27.00;65.30
13928;DHT22;7036;50.834;4.718;2023-09-12T03:55:33;27.00;65.40
13928;DHT22;7036;50.834;4.718;2023-09-12T03:58:00;27.00;65.30
13928;DHT22;7036;50.834;4.718;2023-09-12T04:00:27;27.00;65.20
13928;DHT22;7036;50.834;4.718;2023-09-12T04:02:53;27.00;65.30
13928;DHT22;7036;50.834;4.718;2023-09-12T04:05:20;26.90;65.20
13928;DHT22;7036;50.834;4.718;2023-09-12T04:07:47;26.90;65.30
13928;DHT22;7036;50.834;4.718;2023-09-12T04:10:14;26.90;65.40
13928;DHT22;7036;50.834;4.718;2023-09-12T04:12:41;26.90;65.50
13928;DHT22;7036;50.834;4.718;2023-09-12T04:15:08;26.90;65.40
13928;DHT22;7036;50.834;4.718;2023-09-12T04:17:35;26.90;65.40
13928;DHT22;7036;50.834;4.718;2023-09-12T04:20:02;26.90;65.50
13928;DHT22;7036;50.834;4.718;2023-09-12T04:22:29;26.90;65.50
13928;DHT22;7036;50.834;4.718;2023-09-12T04:24:56;26.90;65.40
13928;DHT22;7036;50.834;4.718;2023-09-12T04:27:23;26.90;65.50
13928;DHT22;7036;50.834;4.718;2023-09-12T04:29:50;26.90;65.50
13928;DHT22;7036;50.834;4.718;2023-09-12T04:32:17;26.90;65.60
13928;DHT22;7036;50.834;4.718;2023-09-12T04:34:44;26.90;65.60
13928;DHT22;7036;50.834;4.718;2023-09-12T04:37:11;26.90;65.60
13928;DHT22;7036;50.834;4.718;2023-09-12T04:39:38;26.90;65.60
13928;DHT22;7036;50.834;4.718;2023-09-12T04:42:05;26.90;65.60
13928;DHT22;7036;50.834;4.718;2023-09-12T04:44:35;26.90;65.50
13928;DHT22;7036;50.834;4.718;2023-09-12T04:47:01;26.90;65.50
13928;DHT22;7036;50.834;4.718;2023-09-12T04:49:28;26.90;65.40
13928;DHT22;7036;50.834;4.718;2023-09-12T04:51:55;26.90;65.50
13928;DHT22;7036;50.834;4.718;2023-09-12T04:54:22;26.90;65.60
13928;DHT22;7036;50.834;4.718;2023-09-12T04:56:49;26.80;65.50
13928;DHT22;7036;50.834;4.718;2023-09-12T04:59:16;26.80;65.60
13928;DHT22;7036;50.834;4.718;2023-09-12T05:01:43;26.80;65.60
13928;DHT22;7036;50.834;4.718;2023-09-12T05:04:10;26.80;65.60
13928;DHT22;7036;50.834;4.718;2023-09-12T05:06:37;26.80;65.60
13928;DHT22;7036;50.834;4.718;2023-09-12T05:09:03;26.80;65.60
13928;DHT22;7036;50.834;4.718;2023-09-12T05:11:30;26.80;65.70
13928;DHT22;7036;50.834;4.718;2023-09-12T05:13:57;26.80;65.70
13928;DHT22;7036;50.834;4.718;2023-09-12T05:16:24;26.80;65.70
13928;DHT22;7036;50.834;4.718;2023-09-12T05:18:51;26.80;65.70
13928;DHT22;7036;50.834;4.718;2023-09-12T05:21:18;26.80;65.90
13928;DHT22;7036;50.834;4.718;2023-09-12T05:23:45;26.80;65.60
13928;DHT22;7036;50.834;4.718;2023-09-12T05:26:12;26.80;65.80
13928;DHT22;7036;50.834;4.718;2023-09-12T05:28:39;26.80;65.60
13928;DHT22;7036;50.834;4.718;2023-09-12T05:31:06;26.80;65.60
13928;DHT22;7036;50.834;4.718;2023-09-12T05:33:33;26.80;65.60
13928;DHT22;7036;50.834;4.718;2023-09-12T05:36:00;26.80;65.70
13928;DHT22;7036;50.834;4.718;2023-09-12T05:38:27;26.80;65.70
13928;DHT22;7036;50.834;4.718;2023-09-12T05:40:54;26.80;65.80
13928;DHT22;7036;50.834;4.718;2023-09-12T05:43:21;26.80;65.70
13928;DHT22;7036;50.834;4.718;2023-09-12T05:45:48;26.80;65.80
13928;DHT22;7036;50.834;4.718;2023-09-12T05:48:15;26.80;65.70
13928;DHT22;7036;50.834;4.718;2023-09-12T05:50:42;26.80;65.60
13928;DHT22;7036;50.834;4.718;2023-09-12T05:53:08;26.80;65.70
13928;DHT22;7036;50.834;4.718;2023-09-12T05:55:35;26.80;65.80
13928;DHT22;7036;50.834;4.718;2023-09-12T05:58:02;26.70;65.70
13928;DHT22;7036;50.834;4.718;2023-09-12T06:00:30;26.70;65.80
13928;DHT22;7036;50.834;4.718;2023-09-12T06:02:57;26.70;65.70
13928;DHT22;7036;50.834;4.718;2023-09-12T06:05:24;26.80;65.70
13928;DHT22;7036;50.834;4.718;2023-09-12T06:07:51;26.70;65.70
13928;DHT22;7036;50.834;4.718;2023-09-12T06:10:18;26.70;65.70
13928;DHT22;7036;50.834;4.718;2023-09-12T06:12:44;26.70;65.80
13928;DHT22;7036;50.834;4.718;2023-09-12T06:15:11;26.70;65.80
13928;DHT22;7036;50.834;4.718;2023-09-12T06:17:38;26.70;65.80
13928;DHT22;7036;50.834;4.718;2023-09-12T06:20:06;26.70;65.90
13928;DHT22;7036;50.834;4.718;2023-09-12T06:22:33;26.70;65.80
13928;DHT22;7036;50.834;4.718;2023-09-12T06:25:00;26.70;66.00
13928;DHT22;7036;50.834;4.718;2023-09-12T06:27:27;26.70;65.90
13928;DHT22;7036;50.834;4.718;2023-09-12T06:29:54;26.70;65.90
13928;DHT22;7036;50.834;4.718;2023-09-12T06:32:21;26.70;65.90
13928;DHT22;7036;50.834;4.718;2023-09-12T06:34:48;26.70;65.80
13928;DHT22;7036;50.834;4.718;2023-09-12T06:37:15;26.70;65.90
13928;DHT22;7036;50.834;4.718;2023-09-12T06:39:42;26.70;65.80
13928;DHT22;7036;50.834;4.718;2023-09-12T06:42:08;26.70;65.80
13928;DHT22;7036;50.834;4.718;2023-09-12T06:44:35;26.70;65.70
13928;DHT22;7036;50.834;4.718;2023-09-12T06:47:05;26.70;65.70
13928;DHT22;7036;50.834;4.718;2023-09-12T06:49:33;26.80;65.80
13928;DHT22;7036;50.834;4.718;2023-09-12T06:51:59;26.80;65.60
13928;DHT22;7036;50.834;4.718;2023-09-12T06:54:26;26.80;65.60
13928;DHT22;7036;50.834;4.718;2023-09-12T06:56:53;26.80;65.60
13928;DHT22;7036;50.834;4.718;2023-09-12T06:59:20;26.80;65.60
13928;DHT22;7036;50.834;4.718;2023-09-12T07:01:47;26.80;65.60
13928;DHT22;7036;50.834;4.718;2023-09-12T07:04:14;26.80;65.40
13928;DHT22;7036;50.834;4.718;2023-09-12T07:06:42;26.80;65.50
13928;DHT22;7036;50.834;4.718;2023-09-12T07:09:10;26.80;65.60
13928;DHT22;7036;50.834;4.718;2023-09-12T07:11:36;26.80;65.50
13928;DHT22;7036;50.834;4.718;2023-09-12T07:14:03;26.80;65.70
13928;DHT22;7036;50.834;4.718;2023-09-12T07:16:31;26.80;65.90
13928;DHT22;7036;50.834;4.718;2023-09-12T07:18:57;26.70;66.20
13928;DHT22;7036;50.834;4.718;2023-09-12T07:21:24;26.70;66.40
13928;DHT22;7036;50.834;4.718;2023-09-12T07:23:51;26.70;66.40
13928;DHT22;7036;50.834;4.718;2023-09-12T07:26:18;26.70;66.50
13928;DHT22;7036;50.834;4.718;2023-09-12T07:28:45;26.70;66.60
13928;DHT22;7036;50.834;4.718;2023-09-12T07:31:12;26.70;66.80
13928;DHT22;7036;50.834;4.718;2023-09-12T07:33:39;26.60;66.90
13928;DHT22;7036;50.834;4.718;2023-09-12T07:36:06;26.60;67.10
13928;DHT22;7036;50.834;4.718;2023-09-12T07:38:33;26.60;67.00
13928;DHT22;7036;50.834;4.718;2023-09-12T07:41:00;26.70;66.90
13928;DHT22;7036;50.834;4.718;2023-09-12T07:43:27;26.70;66.80
13928;DHT22;7036;50.834;4.718;2023-09-12T07:45:57;26.80;66.60
13928;DHT22;7036;50.834;4.718;2023-09-12T07:48:23;26.90;66.60
13928;DHT22;7036;50.834;4.718;2023-09-12T07:50:50;26.90;66.80
13928;DHT22;7036;50.834;4.718;2023-09-12T07:53:17;26.90;66.70
13928;DHT22;7036;50.834;4.718;2023-09-12T07:55:44;27.00;66.80
13928;DHT22;7036;50.834;4.718;2023-09-12T07:58:14;27.00;67.00
13928;DHT22;7036;50.834;4.718;2023-09-12T08:00:41;27.00;66.80
13928;DHT22;7036;50.834;4.718;2023-09-12T08:03:08;27.00;66.80
13928;DHT22;7036;50.834;4.718;2023-09-12T08:05:36;27.00;66.50
13928;DHT22;7036;50.834;4.718;2023-09-12T08:08:03;27.00;66.90
13928;DHT22;7036;50.834;4.718;2023-09-12T08:10:30;27.00;66.70
13928;DHT22;7036;50.834;4.718;2023-09-12T08:12:57;27.00;66.80
13928;DHT22;7036;50.834;4.718;2023-09-12T08:15:24;27.00;66.80
13928;DHT22;7036;50.834;4.718;2023-09-12T08:17:51;27.00;66.90
13928;DHT22;7036;50.834;4.718;2023-09-12T08:20:18;27.00;66.80
13928;DHT22;7036;50.834;4.718;2023-09-12T08:22:45;27.00;66.60
13928;DHT22;7036;50.834;4.718;2023-09-12T08:25:12;27.00;66.70
13928;DHT22;7036;50.834;4.718;2023-09-12T08:27:39;27.00;66.60
13928;DHT22;7036;50.834;4.718;2023-09-12T08:30:06;27.00;66.70
13928;DHT22;7036;50.834;4.718;2023-09-12T08:32:32;27.00;66.50
13928;DHT22;7036;50.834;4.718;2023-09-12T08:34:59;27.00;66.40
13928;DHT22;7036;50.834;4.718;2023-09-12T08:37:26;27.00;66.40
13928;DHT22;7036;50.834;4.718;2023-09-12T08:39:53;26.90;66.10
13928;DHT22;7036;50.834;4.718;2023-09-12T08:42:20;26.90;66.20
13928;DHT22;7036;50.834;4.718;2023-09-12T08:44:47;26.90;66.40
13928;DHT22;7036;50.834;4.718;2023-09-12T08:47:14;26.90;66.30
13928;DHT22;7036;50.834;4.718;2023-09-12T08:49:41;26.90;66.40
13928;DHT22;7036;50.834;4.718;2023-09-12T08:52:08;26.90;66.40
13928;DHT22;7036;50.834;4.718;2023-09-12T08:54:35;26.90;66.10
13928;DHT22;7036;50.834;4.718;2023-09-12T08:57:02;26.90;66.00
13928;DHT22;7036;50.834;4.718;2023-09-12T08:59:29;26.90;65.40
13928;DHT22;7036;50.834;4.718;2023-09-12T09:01:56;26.90;65.50
13928;DHT22;7036;50.834;4.718;2023-09-12T09:04:23;26.90;65.30
13928;DHT22;7036;50.834;4.718;2023-09-12T09:06:50;26.80;65.20
13928;DHT22;7036;50.834;4.718;2023-09-12T09:09:16;26.80;64.70
13928;DHT22;7036;50.834;4.718;2023-09-12T09:11:43;26.80;65.00
13928;DHT22;7036;50.834;4.718;2023-09-12T09:14:10;26.80;65.40
13928;DHT22;7036;50.834;4.718;2023-09-12T09:16:37;26.90;65.10
13928;DHT22;7036;50.834;4.718;2023-09-12T09:19:05;26.90;65.10
13928;DHT22;7036;50.834;4.718;2023-09-12T09:21:32;26.90;64.80
13928;DHT22;7036;50.834;4.718;2023-09-12T09:24:03;26.80;64.70
13928;DHT22;7036;50.834;4.718;2023-09-12T09:26:43;26.90;64.70
13928;DHT22;7036;50.834;4.718;2023-09-12T09:29:10;26.90;64.40
13928;DHT22;7036;50.834;4.718;2023-09-12T09:31:39;26.90;64.50
13928;DHT22;7036;50.834;4.718;2023-09-12T09:34:03;26.90;64.50
13928;DHT22;7036;50.834;4.718;2023-09-12T09:36:30;26.90;64.50
13928;DHT22;7036;50.834;4.718;2023-09-12T09:38:57;26.90;64.40
13928;DHT22;7036;50.834;4.718;2023-09-12T09:41:24;26.90;64.60
13928;DHT22;7036;50.834;4.718;2023-09-12T09:43:51;26.90;64.60
13928;DHT22;7036;50.834;4.718;2023-09-12T09:46:18;26.90;64.50
13928;DHT22;7036;50.834;4.718;2023-09-12T09:48:51;26.90;64.50
13928;DHT22;7036;50.834;4.718;2023-09-12T09:51:17;26.90;64.40
13928;DHT22;7036;50.834;4.718;2023-09-12T09:53:44;26.90;64.30
13928;DHT22;7036;50.834;4.718;2023-09-12T09:56:12;26.90;64.40
13928;DHT22;7036;50.834;4.718;2023-09-12T09:58:47;27.00;64.20
13928;DHT22;7036;50.834;4.718;2023-09-12T10:01:26;27.00;64.30
13928;DHT22;7036;50.834;4.718;2023-09-12T10:03:44;27.00;64.00
13928;DHT22;7036;50.834;4.718;2023-09-12T10:06:11;27.00;64.00
13928;DHT22;7036;50.834;4.718;2023-09-12T10:08:38;27.00;63.60
13928;DHT22;7036;50.834;4.718;2023-09-12T10:11:05;27.00;64.00
13928;DHT22;7036;50.834;4.718;2023-09-12T10:13:32;27.00;64.00
13928;DHT22;7036;50.834;4.718;2023-09-12T10:15:59;27.00;64.00
13928;DHT22;7036;50.834;4.718;2023-09-12T10:18:26;27.00;64.00
13928;DHT22;7036;50.834;4.718;2023-09-12T10:20:55;27.00;64.00
13928;DHT22;7036;50.834;4.718;2023-09-12T10:23:23;27.00;63.90
13928;DHT22;7036;50.834;4.718;2023-09-12T10:25:46;27.10;64.00
13928;DHT22;7036;50.834;4.718;2023-09-12T10:28:13;27.10;63.90
13928;DHT22;7036;50.834;4.718;2023-09-12T10:30:42;27.10;63.70
13928;DHT22;7036;50.834;4.718;2023-09-12T10:33:09;27.10;63.60
13928;DHT22;7036;50.834;4.718;2023-09-12T10:35:36;27.20;63.60
13928;DHT22;7036;50.834;4.718;2023-09-12T10:38:03;27.20;63.60
13928;DHT22;7036;50.834;4.718;2023-09-12T10:40:36;27.10;63.60
13928;DHT22;7036;50.834;4.718;2023-09-12T10:43:00;27.10;63.40
13928;DHT22;7036;50.834;4.718;2023-09-12T10:45:27;27.20;63.50
13928;DHT22;7036;50.834;4.718;2023-09-12T10:47:54;27.20;63.60
13928;DHT22;7036;50.834;4.718;2023-09-12T10:50:21;27.20;63.60
13928;DHT22;7036;50.834;4.718;2023-09-12T10:52:48;27.20;63.60
13928;DHT22;7036;50.834;4.718;2023-09-12T10:55:18;27.20;63.50
13928;DHT22;7036;50.834;4.718;2023-09-12T10:58:04;27.20;63.50
13928;DHT22;7036;50.834;4.718;2023-09-12T11:00:27;27.20;63.50
13928;DHT22;7036;50.834;4.718;2023-09-12T11:02:54;27.20;64.10
13928;DHT22;7036;50.834;4.718;2023-09-12T11:07:59;27.20;63.20
13928;DHT22;7036;50.834;4.718;2023-09-12T11:10:25;27.20;63.20
13928;DHT22;7036;50.834;4.718;2023-09-12T11:12:55;27.20;63.20
13928;DHT22;7036;50.834;4.718;2023-09-12T11:15:22;27.20;63.20
13928;DHT22;7036;50.834;4.718;2023-09-12T11:17:49;27.20;63.10
13928;DHT22;7036;50.834;4.718;2023-09-12T11:20:16;27.20;63.10
13928;DHT22;7036;50.834;4.718;2023-09-12T11:22:43;27.20;63.20
13928;DHT22;7036;50.834;4.718;2023-09-12T11:25:22;27.20;63.40
13928;DHT22;7036;50.834;4.718;2023-09-12T11:30:24;27.20;63.70
13928;DHT22;7036;50.834;4.718;2023-09-12T11:32:51;27.20;64.00
13928;DHT22;7036;50.834;4.718;2023-09-12T11:35:22;27.30;63.90
13928;DHT22;7036;50.834;4.718;2023-09-12T11:37:51;27.20;64.10
13928;DHT22;7036;50.834;4.718;2023-09-12T11:40:17;27.20;64.00
13928;DHT22;7036;50.834;4.718;2023-09-12T11:42:44;27.30;64.00
13928;DHT22;7036;50.834;4.718;2023-09-12T11:45:10;27.30;64.00
13928;DHT22;7036;50.834;4.718;2023-09-12T11:47:44;27.30;64.00
13928;DHT22;7036;50.834;4.718;2023-09-12T11:53:05;27.30;63.80
13928;DHT22;7036;50.834;4.718;2023-09-12T11:55:53;27.30;63.90
13928;DHT22;7036;50.834;4.718;2023-09-12T11:57:58;27.30;63.70
13928;DHT22;7036;50.834;4.718;2023-09-12T12:00:24;27.30;63.80
13928;DHT22;7036;50.834;4.718;2023-09-12T12:02:52;27.30;63.40
13928;DHT22;7036;50.834;4.718;2023-09-12T12:05:18;27.30;63.60
13928;DHT22;7036;50.834;4.718;2023-09-12T12:07:46;27.30;63.80
13928;DHT22;7036;50.834;4.718;2023-09-12T12:10:12;27.30;63.80
13928;DHT22;7036;50.834;4.718;2023-09-12T12:12:39;27.30;63.80
13928;DHT22;7036;50.834;4.718;2023-09-12T12:15:09;27.30;63.80
13928;DHT22;7036;50.834;4.718;2023-09-12T12:17:36;27.30;64.40
13928;DHT22;7036;50.834;4.718;2023-09-12T12:20:03;27.30;63.70
13928;DHT22;7036;50.834;4.718;2023-09-12T12:22:30;27.30;63.70
13928;DHT22;7036;50.834;4.718;2023-09-12T12:24:57;27.30;63.80
13928;DHT22;7036;50.834;4.718;2023-09-12T12:27:24;27.30;63.80
13928;DHT22;7036;50.834;4.718;2023-09-12T12:29:50;27.30;63.60
13928;DHT22;7036;50.834;4.718;2023-09-12T12:32:17;27.30;63.70
13928;DHT22;7036;50.834;4.718;2023-09-12T12:34:48;27.30;63.50
13928;DHT22;7036;50.834;4.718;2023-09-12T12:37:11;27.30;63.40
13928;DHT22;7036;50.834;4.718;2023-09-12T12:39:42;27.30;63.60
13928;DHT22;7036;50.834;4.718;2023-09-12T12:42:05;27.30;64.10
13928;DHT22;7036;50.834;4.718;2023-09-12T12:44:32;27.30;63.50
13928;DHT22;7036;50.834;4.718;2023-09-12T12:46:59;27.30;63.70
13928;DHT22;7036;50.834;4.718;2023-09-12T12:49:26;27.30;62.80
13928;DHT22;7036;50.834;4.718;2023-09-12T12:51:53;27.30;63.40
13928;DHT22;7036;50.834;4.718;2023-09-12T12:54:21;27.30;63.60
13928;DHT22;7036;50.834;4.718;2023-09-12T12:56:47;27.30;63.50
13928;DHT22;7036;50.834;4.718;2023-09-12T12:59:14;27.30;63.40
13928;DHT22;7036;50.834;4.718;2023-09-12T13:01:41;27.30;63.30
13928;DHT22;7036;50.834;4.718;2023-09-12T13:04:08;27.30;63.30
13928;DHT22;7036;50.834;4.718;2023-09-12T13:06:35;27.30;63.20
13928;DHT22;7036;50.834;4.718;2023-09-12T13:09:02;27.30;63.60
13928;DHT22;7036;50.834;4.718;2023-09-12T13:11:30;27.30;63.70
13928;DHT22;7036;50.834;4.718;2023-09-12T13:13:56;27.40;63.80
13928;DHT22;7036;50.834;4.718;2023-09-12T13:16:23;27.40;63.80
13928;DHT22;7036;50.834;4.718;2023-09-12T13:18:50;27.40;63.80
13928;DHT22;7036;50.834;4.718;2023-09-12T13:21:17;27.40;63.80
13928;DHT22;7036;50.834;4.718;2023-09-12T13:23:44;27.40;63.80
13928;DHT22;7036;50.834;4.718;2023-09-12T13:26:11;27.40;63.80
13928;DHT22;7036;50.834;4.718;2023-09-12T13:28:38;27.40;63.80
13928;DHT22;7036;50.834;4.718;2023-09-12T13:31:04;27.40;63.90
13928;DHT22;7036;50.834;4.718;2023-09-12T13:33:31;27.40;63.90
13928;DHT22;7036;50.834;4.718;2023-09-12T13:35:58;27.40;63.90
13928;DHT22;7036;50.834;4.718;2023-09-12T13:38:25;27.40;63.90
13928;DHT22;7036;50.834;4.718;2023-09-12T13:40:52;27.50;64.00
13928;DHT22;7036;50.834;4.718;2023-09-12T13:43:20;27.50;64.00
13928;DHT22;7036;50.834;4.718;2023-09-12T13:45:47;27.50;63.90
13928;DHT22;7036;50.834;4.718;2023-09-12T13:48:14;27.50;63.90
13928;DHT22;7036;50.834;4.718;2023-09-12T13:50:41;27.50;63.90
13928;DHT22;7036;50.834;4.718;2023-09-12T13:53:08;27.50;64.00
13928;DHT22;7036;50.834;4.718;2023-09-12T13:55:35;27.50;64.00
13928;DHT22;7036;50.834;4.718;2023-09-12T13:58:02;27.50;64.00
13928;DHT22;7036;50.834;4.718;2023-09-12T14:00:29;27.50;64.00
13928;DHT22;7036;50.834;4.718;2023-09-12T14:02:56;27.50;64.00
13928;DHT22;7036;50.834;4.718;2023-09-12T14:05:23;27.50;64.10
13928;DHT22;7036;50.834;4.718;2023-09-12T14:07:50;27.50;64.50
13928;DHT22;7036;50.834;4.718;2023-09-12T14:10:17;27.50;65.10
13928;DHT22;7036;50.834;4.718;2023-09-12T14:12:43;27.50;65.30
13928;DHT22;7036;50.834;4.718;2023-09-12T14:15:13;27.50;65.40
13928;DHT22;7036;50.834;4.718;2023-09-12T14:17:43;27.60;66.20
13928;DHT22;7036;50.834;4.718;2023-09-12T14:20:10;27.50;65.20
13928;DHT22;7036;50.834;4.718;2023-09-12T14:22:37;27.50;65.00
13928;DHT22;7036;50.834;4.718;2023-09-12T14:25:04;27.50;64.40
13928;DHT22;7036;50.834;4.718;2023-09-12T14:27:33;27.30;65.50
13928;DHT22;7036;50.834;4.718;2023-09-12T14:30:00;27.20;64.80
13928;DHT22;7036;50.834;4.718;2023-09-12T14:32:26;27.20;65.10
13928;DHT22;7036;50.834;4.718;2023-09-12T14:34:53;27.10;65.10
13928;DHT22;7036;50.834;4.718;2023-09-12T14:37:20;27.10;65.10
13928;DHT22;7036;50.834;4.718;2023-09-12T14:39:47;27.20;65.00
13928;DHT22;7036;50.834;4.718;2023-09-12T14:42:14;27.20;64.80
13928;DHT22;7036;50.834;4.718;2023-09-12T14:44:41;27.30;64.70
13928;DHT22;7036;50.834;4.718;2023-09-12T14:47:08;27.30;64.70
13928;DHT22;7036;50.834;4.718;2023-09-12T14:49:35;27.30;64.60
13928;DHT22;7036;50.834;4.718;2023-09-12T14:52:02;27.30;64.50
13928;DHT22;7036;50.834;4.718;2023-09-12T14:54:29;27.30;64.20
13928;DHT22;7036;50.834;4.718;2023-09-12T14:56:56;27.40;64.10
13928;DHT22;7036;50.834;4.718;2023-09-12T14:59:23;27.40;63.90
13928;DHT22;7036;50.834;4.718;2023-09-12T15:01:50;27.40;64.30
13928;DHT22;7036;50.834;4.718;2023-09-12T15:04:17;27.40;63.80
13928;DHT22;7036;50.834;4.718;2023-09-12T15:06:44;27.30;63.80
13928;DHT22;7036;50.834;4.718;2023-09-12T15:09:12;27.40;63.90
13928;DHT22;7036;50.834;4.718;2023-09-12T15:11:38;27.30;63.80
13928;DHT22;7036;50.834;4.718;2023-09-12T15:14:05;27.30;63.60
13928;DHT22;7036;50.834;4.718;2023-09-12T15:16:32;27.30;63.50
13928;DHT22;7036;50.834;4.718;2023-09-12T15:18:59;27.30;63.50
13928;DHT22;7036;50.834;4.718;2023-09-12T15:21:26;27.30;63.20
13928;DHT22;7036;50.834;4.718;2023-09-12T15:23:53;27.30;63.40
13928;DHT22;7036;50.834;4.718;2023-09-12T15:26:20;27.30;63.70
13928;DHT22;7036;50.834;4.718;2023-09-12T15:28:47;27.30;63.50
13928;DHT22;7036;50.834;4.718;2023-09-12T15:31:14;27.20;63.40
13928;DHT22;7036;50.834;4.718;2023-09-12T15:33:41;27.20;63.20
13928;DHT22;7036;50.834;4.718;2023-09-12T15:36:08;27.20;63.40
13928;DHT22;7036;50.834;4.718;2023-09-12T15:38:36;27.20;63.30
13928;DHT22;7036;50.834;4.718;2023-09-12T15:41:02;27.20;63.50
13928;DHT22;7036;50.834;4.718;2023-09-12T15:43:29;27.20;63.60
13928;DHT22;7036;50.834;4.718;2023-09-12T15:45:56;27.20;63.70
13928;DHT22;7036;50.834;4.718;2023-09-12T15:48:23;27.20;63.80
13928;DHT22;7036;50.834;4.718;2023-09-12T15:50:51;27.20;63.70
13928;DHT22;7036;50.834;4.718;2023-09-12T15:53:18;27.30;63.70
13928;DHT22;7036;50.834;4.718;2023-09-12T15:55:45;27.20;63.60